Aérodrome :
LOGIN :

S'inscrire | Disclaimer

   EN    FR    IT 

 










Légende :    VFR   VFR Marginal   IFR   IFR Intensif   IFR Très Intensif
Visi : 
Plafond : 
>= 8 km
>= 3000ft
5 à 8 km
1000 à 3000 ft
1500m à 5 km
500 à 1000 ft
800 à 1500m
200 à 500 ft
< 800m
< 200 ft
Symboles :   Orages  Brouillard  Fortes neiges  Fortes précipitations  Vent > 20 kt
SIGMETs :   Divers  Orages  Givrage  Turbulence  Onde Orograph.  Cendres Volcan.







- Altitude de l'aérodrome : 25 ft
- Code IATA : QCY


EGXC - RAF Coningsby

DERNIER METAR :
  • 162250Z 18008KT 9999 BKN025 10/09 Q1019 BLU

METARs EXPIRÉS :
  • 162150Z 18008KT 9999 SCT022 BKN025 10/09 Q1019 WHT
  • 162050Z 18007KT 9999 BKN032 10/09 Q1019 BLU

TAF TAF EGXC
Valide du 16 à 21h jusqu'au 17 à 15h UTC


161926Z 1621/1715 19010KT 9999 BKN025
BECMG 1621/1623 6000 HZ BKN010
PROB40
TEMPO 1700/1708 3000 BR BKN004
BECMG 1708/1711 9999 NSW FEW015
TEMPO 1713/1715 SCT020
Pas de NOTAMs connus pour ce terrain.



MET'MAP, la Météo Aéronautique d'un coup d'oeil ! - Copyright ORBIFLY Décembre 2007 - Disclaimer

ORBIFLY MET'MAP TEAM :

Programmation & Développement : Alexandra Zaïnal
Conception & Développement : Baudouin d'Aumeries
Co-Programmation & Développement : Marc-Olivier Méhu
Soutien technique & logistique : Manuel Goepfert

Contact : metmap@orbifly.com




SOURCES & CREDITS :

   NOAA